Airfield :
LOGIN :

Register | Disclaimer

   EN    FR    IT 

 










Legend :    VFR   Marginal VFR   IFR   Intensive IFR   Very Intensive IFR
Visi :
Ceiling :
>= 8 km
>= 3000ft
5 to 8 km
1000 to 3000 ft
1500m to 5 km
500 to 1000 ft
800 to 1500m
200 to 500 ft
< 800m
< 200 ft
Symbols :   Thunderstorms  Fog  Heavy snow  Heavy precipitations  Wind > 20 kt
SIGMETs :     Misc.  Thunderstorms  Icing  Turbulence  Mountain Waves  Volcanic Ashes






- Airport Elevation : 12 ft
- IATA code : BCN


LEBL - Barcelone

CURRENT METAR :
  • 141330Z 22016KT CAVOK 24/06 Q1022 NOSIG

EXPIRED METARs :
  • 141300Z 22015KT CAVOK 23/07 Q1023 NOSIG
  • 141230Z 22013KT CAVOK 23/07 Q1023 NOSIG
  • 141200Z 22012KT CAVOK 23/07 Q1024 NOSIG
  • 141130Z 21012KT CAVOK 21/09 Q1024 NOSIG
  • 141100Z 21013KT CAVOK 24/05 Q1024 NOSIG
  • 141030Z 22014KT CAVOK 22/07 Q1025 NOSIG
  • 141000Z 20008KT 170V250 CAVOK 20/11 Q1024 NOSIG
  • 140930Z 22006KT 190V250 CAVOK 21/09 Q1024 NOSIG
  • 140900Z 20005KT 160V260 CAVOK 19/09 Q1025 NOSIG

TAF TAF LEBL
Valid from the 14 at 12:00 until the 15 at 12:00 UTC


141100Z 1412/1512 21010KT CAVOK TX24/1412Z TN13/1506Z
BECMG 1418/1420 20006KT
BECMG 1500/1502 VRB04KT
BECMG 1509/1511 21010KT



MET'MAP, your aeronautical weather chart ! - Copyright ORBIFLY December 2007 - Disclaimer

ORBIFLY MET'MAP TEAM :

Programming & Development : Alexandra Zaïnal
Original concept : Baudouin d'Aumeries
Technical & hardware support : Manuel Goepfert
Assistance : Marc-Olivier Méhu




SOURCES & CREDITS :

   NOAA